createdAt,value
2016-11-05T00:00:49.632Z,54.24
2016-11-05T00:01:49.649Z,54.33
2016-11-05T00:02:49.997Z,54.14
2016-11-05T00:03:50.001Z,54.04
2016-11-05T00:04:49.705Z,54.04
2016-11-05T00:05:50.040Z,54.24
2016-11-05T00:06:49.742Z,53.85
2016-11-05T00:07:50.078Z,53.09
2016-11-05T00:08:49.777Z,52.9
2016-11-05T00:09:50.112Z,53.19
2016-11-05T00:10:49.820Z,53.19
2016-11-05T00:11:49.833Z,53.64
2016-11-05T00:12:49.854Z,53.85
2016-11-05T00:13:50.185Z,54.33
2016-11-05T00:14:49.886Z,53.95
2016-11-05T00:15:49.903Z,53.85
2016-11-05T00:16:49.922Z,53.09
2016-11-05T00:17:50.254Z,53.09
2016-11-05T00:18:49.956Z,52.33
2016-11-05T00:19:49.986Z,53.19
2016-11-05T00:20:50.035Z,53.38
2016-11-05T00:21:50.329Z,52.9
2016-11-05T00:22:50.361Z,53.38
2016-11-05T00:23:50.048Z,53.19
2016-11-05T00:24:50.384Z,53.66
2016-11-05T00:25:50.400Z,52.8
2016-11-05T00:26:50.110Z,53.28
2016-11-05T00:27:50.126Z,53.56
2016-11-05T00:28:50.139Z,53.19
2016-11-05T00:29:50.475Z,53.28
2016-11-05T00:30:50.180Z,52.8
2016-11-05T00:31:50.514Z,52.8
2016-11-05T00:32:50.212Z,52.8
2016-11-05T00:33:50.549Z,52.9
2016-11-05T00:34:50.583Z,52.23
2016-11-05T00:35:50.278Z,52.9
2016-11-05T00:36:50.287Z,51.76
2016-11-05T00:37:50.642Z,51.76
2016-11-05T00:38:50.322Z,51.47
2016-11-05T00:39:50.343Z,50.99
2016-11-05T00:40:50.675Z,51.28
2016-11-05T00:41:50.707Z,51.85
2016-11-05T00:42:50.712Z,52.33
2016-11-05T00:43:50.733Z,52.14
2016-11-05T00:44:50.748Z,52.23
2016-11-05T00:45:50.771Z,51.76
2016-11-05T00:46:50.468Z,51.95
2016-11-05T00:47:50.486Z,51.37
2016-11-05T00:48:50.833Z,51.37
2016-11-05T00:49:50.842Z,51.47
2016-11-05T00:50:50.562Z,51.18
2016-11-05T00:51:50.881Z,51.47
2016-11-05T00:52:50.896Z,51.47
2016-11-05T00:53:50.597Z,50.99
2016-11-05T00:54:50.618Z,50.9
2016-11-05T00:55:50.950Z,51.09
2016-11-05T00:56:50.990Z,51.18
2016-11-05T00:57:50.995Z,51.28
2016-11-05T00:58:51.008Z,50.23
2016-11-05T00:59:50.714Z,48.8
2016-11-05T01:00:51.043Z,49.37
2016-11-05T01:01:51.062Z,48.9
2016-11-05T01:02:50.768Z,48.8
2016-11-05T01:03:51.095Z,49.28
2016-11-05T01:04:51.118Z,49.08
2016-11-05T01:05:51.136Z,49.11
2016-11-05T01:06:51.159Z,48.63
2016-11-05T01:07:50.861Z,49.02
2016-11-05T01:08:51.189Z,49.11
2016-11-05T01:09:51.207Z,48.44
2016-11-05T01:10:50.909Z,47.3
2016-11-05T01:11:51.250Z,47.58
2016-11-05T01:12:51.268Z,47.2
2016-11-05T01:13:51.287Z,47.11
2016-11-05T01:14:50.984Z,47.3
2016-11-05T01:15:51.322Z,47.58
2016-11-05T01:16:51.022Z,47.68
2016-11-05T01:17:51.369Z,47.39
2016-11-05T01:18:51.058Z,47.3
2016-11-05T01:19:51.087Z,47.3
2016-11-05T01:20:51.418Z,47.89
2016-11-05T01:21:51.428Z,47.99
2016-11-05T01:22:51.454Z,47.89
2016-11-05T01:23:51.164Z,47.71
2016-11-05T01:24:51.214Z,47.99
2016-11-05T01:25:51.188Z,47.23
2016-11-05T01:26:51.528Z,47.42
2016-11-05T01:27:51.552Z,48.28
2016-11-05T01:28:51.565Z,47.8
2016-11-05T01:29:51.264Z,47.71
2016-11-05T01:30:51.602Z,47.13
2016-11-05T01:31:51.619Z,47.42
2016-11-05T01:32:51.639Z,47.52
2016-11-05T01:33:51.341Z,47.97
2016-11-05T01:34:51.678Z,47.2
2016-11-05T01:35:51.375Z,47.52
2016-11-05T01:36:51.394Z,47.58
2016-11-05T01:37:51.423Z,47.97
2016-11-05T01:38:51.434Z,47.39
2016-11-05T01:39:51.452Z,47.99
2016-11-05T01:40:51.479Z,47.97
2016-11-05T01:41:51.810Z,47.99
2016-11-05T01:42:51.528Z,47.49
2016-11-05T01:43:51.531Z,47.39
2016-11-05T01:44:51.547Z,47.13
2016-11-05T01:45:51.575Z,46.63
2016-11-05T01:46:51.586Z,46.56
2016-11-05T01:47:51.607Z,47.02
2016-11-05T01:48:51.621Z,46.94
2016-11-05T01:49:51.648Z,47.32
2016-11-05T01:50:51.686Z,47.49
2016-11-05T01:51:51.679Z,48.07
2016-11-05T01:52:52.016Z,47.42
2016-11-05T01:53:51.719Z,47.13
2016-11-05T01:54:51.734Z,47.03
2016-11-05T01:55:51.753Z,47.03
2016-11-05T01:56:51.778Z,47.71
2016-11-05T01:57:52.121Z,48.08
2016-11-05T01:58:51.812Z,47.61
2016-11-05T01:59:51.828Z,47.52
2016-11-05T02:00:52.166Z,47.52
2016-11-05T02:01:51.871Z,47.32
2016-11-05T02:02:52.212Z,47.8
2016-11-05T02:03:52.231Z,47.52
2016-11-05T02:04:51.922Z,47.71
2016-11-05T02:05:52.257Z,47.42
2016-11-05T02:06:51.971Z,47.42
2016-11-05T02:07:51.980Z,48.28
2016-11-05T02:08:52.315Z,47.8
2016-11-05T02:09:52.018Z,47.42
2016-11-05T02:10:52.038Z,47.13
2016-11-05T02:11:52.068Z,47.32
2016-11-05T02:12:52.398Z,46.94
2016-11-05T02:13:52.094Z,47.42
2016-11-05T02:14:52.433Z,47.71
2016-11-05T02:15:52.445Z,47.52
2016-11-05T02:16:52.172Z,47.42
2016-11-05T02:17:52.169Z,46.94
2016-11-05T02:18:52.504Z,46.18
2016-11-05T02:19:52.524Z,46.75
2016-11-05T02:20:52.249Z,46.75
2016-11-05T02:21:52.562Z,46.84
2016-11-05T02:22:52.612Z,47.03
2016-11-05T02:23:52.292Z,47.42
2016-11-05T02:24:52.300Z,47.32
2016-11-05T02:25:52.321Z,47.42
2016-11-05T02:26:52.688Z,45.99
2016-11-05T02:27:52.673Z,45.99
2016-11-05T02:28:52.378Z,47.03
2016-11-05T02:29:52.410Z,47.03
2016-11-05T02:30:52.731Z,45.99
2016-11-05T02:31:52.750Z,46.84
2016-11-05T02:32:52.452Z,46.94
2016-11-05T02:33:52.833Z,46.97
2016-11-05T02:34:52.810Z,46.2
2016-11-05T02:35:52.827Z,46.3
2016-11-05T02:36:52.846Z,46.11
2016-11-05T02:37:52.549Z,45.72
2016-11-05T02:38:52.569Z,46.01
2016-11-05T02:39:52.586Z,46.3
2016-11-05T02:40:52.606Z,45.63
2016-11-05T02:41:52.649Z,45.82
2016-11-05T02:42:52.654Z,45.82
2016-11-05T02:43:52.980Z,46.11
2016-11-05T02:44:52.691Z,45.63
2016-11-05T02:45:53.015Z,45.25
2016-11-05T02:46:53.034Z,45.25
2016-11-05T02:47:53.052Z,45.34
2016-11-05T02:48:53.071Z,45.34
2016-11-05T02:49:52.799Z,45.06
2016-11-05T02:50:52.808Z,45.15
2016-11-05T02:51:53.129Z,45.72
2016-11-05T02:52:52.837Z,45.34
2016-11-05T02:53:53.198Z,45.43
2016-11-05T02:54:52.873Z,44.77
2016-11-05T02:55:53.247Z,44.96
2016-11-05T02:56:53.238Z,45.15
2016-11-05T02:57:52.933Z,45.15
2016-11-05T02:58:53.262Z,45.15
2016-11-05T02:59:52.968Z,45.53
2016-11-05T03:00:53.300Z,45.43
2016-11-05T03:01:53.006Z,45.15
2016-11-05T03:02:53.029Z,45.53
2016-11-05T03:03:53.048Z,45.63
2016-11-05T03:04:53.080Z,45.72
2016-11-05T03:05:53.429Z,45.63
2016-11-05T03:06:53.415Z,45.34
2016-11-05T03:07:53.646Z,45.25
2016-11-05T03:08:53.478Z,45.82
2016-11-05T03:09:53.312Z,45.43
2016-11-05T03:10:53.733Z,45.63
2016-11-05T03:11:54.142Z,45.53
2016-11-05T03:12:53.218Z,44.96
2016-11-05T03:13:53.238Z,45.43
2016-11-05T03:14:53.572Z,45.34
2016-11-05T03:15:53.612Z,45.15
2016-11-05T03:16:53.326Z,45.25
2016-11-05T03:17:53.679Z,45.15
2016-11-05T03:18:53.654Z,45.34
2016-11-05T03:19:53.468Z,45.15
2016-11-05T03:20:53.371Z,45.06
2016-11-05T03:21:53.390Z,44.96
2016-11-05T03:22:53.739Z,45.06
2016-11-05T03:23:53.429Z,45.43
2016-11-05T03:24:53.449Z,44.96
2016-11-05T03:25:53.475Z,45.06
2016-11-05T03:26:53.810Z,44.77
2016-11-05T03:27:53.860Z,45.34
2016-11-05T03:28:53.841Z,45.25
2016-11-05T03:29:53.543Z,45.72
2016-11-05T03:30:53.563Z,45.15
2016-11-05T03:31:53.583Z,44.77
2016-11-05T03:32:53.600Z,44.96
2016-11-05T03:33:53.620Z,45.06
2016-11-05T03:34:53.963Z,44.77
2016-11-05T03:35:53.660Z,45.34
2016-11-05T03:36:53.693Z,45.34
2016-11-05T03:37:53.700Z,45.63
2016-11-05T03:38:53.722Z,45.34
2016-11-05T03:39:54.053Z,44.96
2016-11-05T03:40:53.757Z,45.34
2016-11-05T03:41:53.783Z,45.25
2016-11-05T03:42:53.815Z,45.34
2016-11-05T03:43:53.812Z,45.25
2016-11-05T03:44:53.831Z,45.06
2016-11-05T03:45:53.853Z,45.15
2016-11-05T03:46:54.194Z,45.53
2016-11-05T03:47:53.891Z,45.34
2016-11-05T03:48:53.916Z,45.25
2016-11-05T03:49:54.248Z,45.63
2016-11-05T03:50:54.271Z,45.25
2016-11-05T03:51:54.284Z,45.25
2016-11-05T03:52:54.321Z,45.34
2016-11-05T03:53:54.036Z,45.43
2016-11-05T03:54:54.026Z,45.43
2016-11-05T03:55:54.404Z,45.53
2016-11-05T03:56:54.101Z,45.53
2016-11-05T03:57:54.087Z,45.34
2016-11-05T03:58:54.425Z,45.92
2016-11-05T03:59:54.126Z,45.53
2016-11-05T04:00:54.165Z,44.67
2016-11-05T04:01:54.175Z,44.87
2016-11-05T04:02:54.513Z,44.96
2016-11-05T04:03:54.206Z,45.06
2016-11-05T04:04:54.537Z,45.15
2016-11-05T04:05:54.238Z,45.15
2016-11-05T04:06:54.260Z,45.15
2016-11-05T04:07:54.280Z,45.34
2016-11-05T04:08:54.618Z,45.34
2016-11-05T04:09:54.317Z,46.11
2016-11-05T04:10:54.651Z,45.34
2016-11-05T04:11:54.358Z,45.92
2016-11-05T04:12:54.692Z,45.72
2016-11-05T04:13:54.396Z,45.92
2016-11-05T04:14:54.413Z,45.43
2016-11-05T04:15:54.434Z,45.25
2016-11-05T04:16:54.775Z,45.82
2016-11-05T04:17:54.786Z,46.39
2016-11-05T04:18:54.806Z,46.3
2016-11-05T04:19:54.823Z,46.97
2016-11-05T04:20:54.849Z,46.87
2016-11-05T04:21:54.551Z,46.58
2016-11-05T04:22:54.591Z,46.77
2016-11-05T04:23:54.588Z,46.58
2016-11-05T04:24:54.606Z,46.97
2016-11-05T04:25:54.724Z,46.68
2016-11-05T04:26:54.960Z,46.97
2016-11-05T04:27:54.663Z,47.16
2016-11-05T04:28:55.000Z,47.54
2016-11-05T04:29:55.030Z,47.54
2016-11-05T04:30:55.044Z,47.06
2016-11-05T04:31:54.746Z,46.68
2016-11-05T04:32:54.760Z,46.99
2016-11-05T04:33:54.781Z,46.32
2016-11-05T04:34:54.805Z,46.22
2016-11-05T04:35:55.134Z,45.84
2016-11-05T04:36:55.160Z,44.7
2016-11-05T04:37:54.857Z,44.31
2016-11-05T04:38:54.876Z,43.93
2016-11-05T04:39:54.893Z,43.84
2016-11-05T04:40:55.238Z,43.74
2016-11-05T04:41:55.251Z,43.84
2016-11-05T04:42:54.951Z,43.74
2016-11-05T04:43:55.292Z,43.84
2016-11-05T04:44:54.991Z,43.93
2016-11-05T04:45:55.327Z,43.46
2016-11-05T04:46:55.031Z,43.65
2016-11-05T04:47:55.053Z,43.53
2016-11-05T04:48:55.388Z,43.46
2016-11-05T04:49:55.428Z,43.82
2016-11-05T04:50:55.122Z,44.2
2016-11-05T04:51:55.130Z,44.29
2016-11-05T04:52:55.464Z,44.02
2016-11-05T04:53:55.170Z,43.36
2016-11-05T04:54:55.501Z,43.74
2016-11-05T04:55:55.523Z,43.26
2016-11-05T04:56:55.226Z,43.43
2016-11-05T04:57:55.246Z,43.17
2016-11-05T04:58:55.279Z,43.93
2016-11-05T04:59:55.599Z,44.22
2016-11-05T05:00:55.304Z,44.22
2016-11-05T05:01:55.636Z,44.79
2016-11-05T05:02:55.344Z,45.17
2016-11-05T05:03:55.678Z,44.98
2016-11-05T05:04:55.708Z,44.98
2016-11-05T05:05:55.403Z,45.08
2016-11-05T05:06:55.740Z,44.79
2016-11-05T05:07:55.436Z,44.7
2016-11-05T05:08:55.774Z,45.08
2016-11-05T05:09:55.482Z,44.98
2016-11-05T05:10:55.499Z,45.27
2016-11-05T05:11:55.831Z,46.51
2016-11-05T05:12:55.866Z,46.7
2016-11-05T05:13:55.875Z,46.03
2016-11-05T05:14:55.890Z,45.08
2016-11-05T05:15:55.926Z,43.55
2016-11-05T05:16:55.928Z,43.46
2016-11-05T05:17:55.632Z,43.55
2016-11-05T05:18:55.660Z,43.65
2016-11-05T05:19:55.674Z,43.26
2016-11-05T05:20:55.690Z,43.46
2016-11-05T05:21:55.708Z,44.31
2016-11-05T05:22:55.730Z,43.91
2016-11-05T05:23:56.082Z,44.41
2016-11-05T05:24:56.087Z,44.29
2016-11-05T05:25:56.102Z,44.29
2016-11-05T05:26:55.810Z,44.29
2016-11-05T05:27:55.830Z,44.79
2016-11-05T05:28:56.160Z,44.87
2016-11-05T05:29:56.179Z,43.82
2016-11-05T05:30:55.883Z,44.2
2016-11-05T05:31:55.904Z,44.41
2016-11-05T05:32:56.237Z,43.72
2016-11-05T05:33:56.293Z,44.2
2016-11-05T05:34:55.962Z,44.1
2016-11-05T05:35:55.982Z,44.38
2016-11-05T05:36:55.999Z,44.48
2016-11-05T05:37:56.337Z,44.58
2016-11-05T05:38:56.041Z,44.96
2016-11-05T05:39:56.060Z,45.15
2016-11-05T05:40:56.394Z,45.34
2016-11-05T05:41:56.469Z,45.34
2016-11-05T05:42:56.117Z,45.25
2016-11-05T05:43:56.138Z,44.77
2016-11-05T05:44:56.476Z,43.82
2016-11-05T05:45:56.173Z,43.82
2016-11-05T05:46:56.192Z,43.91
2016-11-05T05:47:56.213Z,43.82
2016-11-05T05:48:56.229Z,43.26
2016-11-05T05:49:56.253Z,44.2
2016-11-05T05:50:56.271Z,45.53
2016-11-05T05:51:56.606Z,45.06
2016-11-05T05:52:56.308Z,45.15
2016-11-05T05:53:56.645Z,45.08
2016-11-05T05:54:56.661Z,43.74
2016-11-05T05:55:56.415Z,43.26
2016-11-05T05:56:56.704Z,42.02
2016-11-05T05:57:56.407Z,41.83
2016-11-05T05:58:56.433Z,42.02
2016-11-05T05:59:56.802Z,42.21
2016-11-05T06:00:56.468Z,42.21
2016-11-05T06:01:56.797Z,42.31
2016-11-05T06:02:56.815Z,43.15
2016-11-05T06:03:56.834Z,43.33
2016-11-05T06:04:56.540Z,43.53
2016-11-05T06:05:56.555Z,43.82
2016-11-05T06:06:56.577Z,44.38
2016-11-05T06:07:56.607Z,45.17
2016-11-05T06:08:56.931Z,45.25
2016-11-05T06:09:56.951Z,45.37
2016-11-05T06:10:56.972Z,44.7
2016-11-05T06:11:57.027Z,44.12
2016-11-05T06:12:57.010Z,44.89
2016-11-05T06:13:56.712Z,45.17
2016-11-05T06:14:56.734Z,45.37
2016-11-05T06:15:57.069Z,45.37
2016-11-05T06:16:57.086Z,45.56
2016-11-05T06:17:56.789Z,46.03
2016-11-05T06:18:57.127Z,44.89
2016-11-05T06:19:57.155Z,44.98
2016-11-05T06:20:56.849Z,44.41
2016-11-05T06:21:57.189Z,45.17
2016-11-05T06:22:56.886Z,45.37
2016-11-05T06:23:56.912Z,45.56
2016-11-05T06:24:57.239Z,45.37
2016-11-05T06:25:56.946Z,45.37
2016-11-05T06:26:56.965Z,45.37
2016-11-05T06:27:56.983Z,44.98
2016-11-05T06:28:57.316Z,45.56
2016-11-05T06:29:57.343Z,45.17
2016-11-05T06:30:57.046Z,45.17
2016-11-05T06:31:57.069Z,45.53
2016-11-05T06:32:57.396Z,45.53
2016-11-05T06:33:57.106Z,45.15
2016-11-05T06:34:57.116Z,44.89
2016-11-05T06:35:57.137Z,45.53
2016-11-05T06:36:57.158Z,45.63
2016-11-05T06:37:57.176Z,45.63
2016-11-05T06:38:57.520Z,45.82
2016-11-05T06:39:57.212Z,46.2
2016-11-05T06:40:57.550Z,46.3
2016-11-05T06:41:57.251Z,45.63
2016-11-05T06:42:57.270Z,45.34
2016-11-05T06:43:57.602Z,45.25
2016-11-05T06:44:57.315Z,45.72
2016-11-05T06:45:57.325Z,45.53
2016-11-05T06:46:57.664Z,45.63
2016-11-05T06:47:57.370Z,44.89
2016-11-05T06:48:57.700Z,45.34
2016-11-05T06:49:57.408Z,46.3
2016-11-05T06:50:57.809Z,46.13
2016-11-05T06:51:57.465Z,45.27
2016-11-05T06:52:57.774Z,44.77
2016-11-05T06:53:57.478Z,44.77
2016-11-05T06:54:57.814Z,45.43
2016-11-05T06:55:57.521Z,45.92
2016-11-05T06:56:57.854Z,45.15
2016-11-05T06:57:57.895Z,45.15
2016-11-05T06:58:57.889Z,45.53
2016-11-05T06:59:57.912Z,46.11
2016-11-05T07:00:57.931Z,45.34
2016-11-05T07:01:57.631Z,45.82
2016-11-05T07:02:57.653Z,45.72
2016-11-05T07:03:57.670Z,46.11
2016-11-05T07:04:58.002Z,46.3
2016-11-05T07:05:58.055Z,46.3
2016-11-05T07:06:57.744Z,47.06
2016-11-05T07:07:57.747Z,46.39
2016-11-05T07:08:58.088Z,46.11
2016-11-05T07:09:58.101Z,46.77
2016-11-05T07:10:58.120Z,47.54
2016-11-05T07:11:57.822Z,48.02
2016-11-05T07:12:57.858Z,47.85
2016-11-05T07:13:57.868Z,47.75
2016-11-05T07:14:58.199Z,46.8
2016-11-05T07:15:58.215Z,45.75
2016-11-05T07:16:57.917Z,45.84
2016-11-05T07:17:58.256Z,45.56
2016-11-05T07:18:57.956Z,45.65
2016-11-05T07:19:58.288Z,45.08
2016-11-05T07:20:58.329Z,45.94
2016-11-05T07:21:58.330Z,46.42
2016-11-05T07:22:58.350Z,46.51
2016-11-05T07:23:58.052Z,45.84
2016-11-05T07:24:58.074Z,46.42
2016-11-05T07:25:58.092Z,46.32
2016-11-05T07:26:58.109Z,46.32
2016-11-05T07:27:58.138Z,46.03
2016-11-05T07:28:58.464Z,46.22
2016-11-05T07:29:58.166Z,46.42
2016-11-05T07:30:58.185Z,46.32
2016-11-05T07:31:58.521Z,46.89
2016-11-05T07:32:58.225Z,46.22
2016-11-05T07:33:58.249Z,46.22
2016-11-05T07:34:58.578Z,45.29
2016-11-05T07:35:58.295Z,45.46
2016-11-05T07:36:58.622Z,45.65
2016-11-05T07:37:58.638Z,46.92
2016-11-05T07:38:58.341Z,46.7
2016-11-05T07:39:58.362Z,46.61
2016-11-05T07:40:58.697Z,46.89
2016-11-05T07:41:58.430Z,47.37
2016-11-05T07:42:58.739Z,47.47
2016-11-05T07:43:58.754Z,47.56
2016-11-05T07:44:58.774Z,47.18
2016-11-05T07:45:58.791Z,45.46
2016-11-05T07:46:58.828Z,45.48
2016-11-05T07:47:58.830Z,46.25
2016-11-05T07:48:58.847Z,46.63
2016-11-05T07:49:58.872Z,47.3
2016-11-05T07:50:58.920Z,47.2
2016-11-05T07:51:58.907Z,47.11
2016-11-05T07:52:58.927Z,46.25
2016-11-05T07:53:58.634Z,46.63
2016-11-05T07:54:58.967Z,47.58
2016-11-05T07:55:58.671Z,47.49
2016-11-05T07:56:59.005Z,47.39
2016-11-05T07:57:59.072Z,47.39
2016-11-05T07:58:59.047Z,48.16
2016-11-05T07:59:58.748Z,47.3
2016-11-05T08:00:58.766Z,45.48
2016-11-05T08:01:58.822Z,45.39
2016-11-05T08:02:58.807Z,45.58
2016-11-05T08:03:58.858Z,46.15
2016-11-05T08:04:58.846Z,45.87
2016-11-05T08:05:58.870Z,45.77
2016-11-05T08:06:58.884Z,46.34
2016-11-05T08:07:58.905Z,46.34
2016-11-05T08:08:58.926Z,46.25
2016-11-05T08:09:58.946Z,45.39
2016-11-05T08:10:59.282Z,46.06
2016-11-05T08:11:58.984Z,45.48
2016-11-05T08:12:59.007Z,45.67
2016-11-05T08:13:59.026Z,46.15
2016-11-05T08:14:59.045Z,45.67
2016-11-05T08:15:59.380Z,46.06
2016-11-05T08:16:59.407Z,46.53
2016-11-05T08:17:59.104Z,47.39
2016-11-05T08:18:59.122Z,47.23
2016-11-05T08:19:59.460Z,47.42
2016-11-05T08:20:59.478Z,45.89
2016-11-05T08:21:59.500Z,46.08
2016-11-05T08:22:59.521Z,46.27
2016-11-05T08:23:59.256Z,45.89
2016-11-05T08:24:59.243Z,46.08
2016-11-05T08:25:59.580Z,46.46
2016-11-05T08:26:59.287Z,46.08
2016-11-05T08:27:59.621Z,46.56
2016-11-05T08:28:59.325Z,47.61
2016-11-05T08:29:59.344Z,48.09
2016-11-05T08:30:59.364Z,48.38
2016-11-05T08:31:59.700Z,47.52
2016-11-05T08:32:59.721Z,47.03
2016-11-05T08:33:59.743Z,46.84
2016-11-05T08:34:59.445Z,47.99
2016-11-05T08:35:59.484Z,48.18
2016-11-05T08:36:59.493Z,48.09
2016-11-05T08:37:59.508Z,48.18
2016-11-05T08:38:59.529Z,48.18
2016-11-05T08:39:59.863Z,48.47
2016-11-05T08:40:59.594Z,48.57
2016-11-05T08:41:59.589Z,48.09
2016-11-05T08:42:59.923Z,48.38
2016-11-05T08:43:59.954Z,48.18
2016-11-05T08:44:59.678Z,48.59
2016-11-05T08:45:59.669Z,48.38
2016-11-05T08:46:59.687Z,47.92
2016-11-05T08:47:59.709Z,47.53
2016-11-05T08:49:00.048Z,47.73
2016-11-05T08:50:00.066Z,47.73
2016-11-05T08:51:00.087Z,47.13
2016-11-05T08:52:00.137Z,47.06
2016-11-05T08:52:59.811Z,46.77
2016-11-05T08:53:59.830Z,46.75
2016-11-05T08:54:59.851Z,46.66
2016-11-05T08:55:59.874Z,47.42
2016-11-05T08:56:59.892Z,46.66
2016-11-05T08:57:59.911Z,46.75
2016-11-05T08:58:59.935Z,47.23
2016-11-05T09:00:00.278Z,47.42
2016-11-05T09:01:00.290Z,47.42
2016-11-05T09:01:59.993Z,47.71
2016-11-05T09:03:00.327Z,47.42
2016-11-05T09:04:00.064Z,47.61
2016-11-05T09:05:00.375Z,48.18
2016-11-05T09:06:00.075Z,48.09
2016-11-05T09:07:00.412Z,48.28
2016-11-05T09:08:00.432Z,48.09
2016-11-05T09:09:00.136Z,48.75
2016-11-05T09:10:00.154Z,48.88
2016-11-05T09:11:00.177Z,48.39
2016-11-05T09:12:00.513Z,48.3
2016-11-05T09:13:00.531Z,48.68
2016-11-05T09:14:00.239Z,47.82
2016-11-05T09:15:00.573Z,47.44
2016-11-05T09:16:00.281Z,46.87
2016-11-05T09:17:00.613Z,47.73
2016-11-05T09:18:00.318Z,47.73
2016-11-05T09:19:00.343Z,47.92
2016-11-05T09:20:00.678Z,47.25
2016-11-05T09:21:00.698Z,47.25
2016-11-05T09:22:00.739Z,46.96
2016-11-05T09:23:00.736Z,47.25
2016-11-05T09:24:00.444Z,47.06
2016-11-05T09:25:00.797Z,47.25
2016-11-05T09:26:00.484Z,46.87
2016-11-05T09:27:00.820Z,46.3
2016-11-05T09:28:00.525Z,46.3
2016-11-05T09:29:00.859Z,46.39
2016-11-05T09:30:00.571Z,46.77
2016-11-05T09:31:00.587Z,47.13
2016-11-05T09:32:00.923Z,47.53
2016-11-05T09:33:00.628Z,47.44
2016-11-05T09:34:00.648Z,47.44
2016-11-05T09:35:00.668Z,46.87
2016-11-05T09:36:01.014Z,47.16
2016-11-05T09:37:00.714Z,46.87
2016-11-05T09:38:01.051Z,47.34
2016-11-05T09:39:00.753Z,47.63
2016-11-05T09:40:00.771Z,47.63
2016-11-05T09:41:00.793Z,47.47
2016-11-05T09:42:01.128Z,47.08
2016-11-05T09:43:00.846Z,46.03
2016-11-05T09:44:00.856Z,46.51
2016-11-05T09:45:01.192Z,46.98
2016-11-05T09:46:01.213Z,46.8
2016-11-05T09:47:01.236Z,46.8
2016-11-05T09:48:01.263Z,46.7
2016-11-05T09:49:01.273Z,46.51
2016-11-05T09:50:01.298Z,46.41
2016-11-05T09:51:01.001Z,47.08
2016-11-05T09:52:01.045Z,47.3
2016-11-05T09:53:01.362Z,47.78
2016-11-05T09:54:01.065Z,47.2
2016-11-05T09:55:01.086Z,46.82
2016-11-05T09:56:01.427Z,47.01
2016-11-05T09:57:01.441Z,45.19
2016-11-05T09:58:01.467Z,45
2016-11-05T09:59:01.170Z,45.38
2016-11-05T10:00:01.203Z,44.62
2016-11-05T10:01:01.217Z,44.23
2016-11-05T10:02:01.548Z,45
2016-11-05T10:03:01.577Z,45.19
2016-11-05T10:04:01.281Z,45.38
2016-11-05T10:05:01.298Z,45.29
2016-11-05T10:06:01.320Z,45.67
2016-11-05T10:07:01.341Z,46.05
2016-11-05T10:08:01.708Z,46.25
2016-11-05T10:09:01.385Z,46.15
2016-11-05T10:10:01.718Z,45.86
2016-11-05T10:11:01.426Z,45.57
2016-11-05T10:12:01.762Z,45.09
2016-11-05T10:13:01.788Z,44.43
2016-11-05T10:14:01.808Z,45.29
2016-11-05T10:15:01.513Z,45.48
2016-11-05T10:16:01.531Z,45.38
2016-11-05T10:17:01.556Z,45.57
2016-11-05T10:18:01.891Z,45.59
2016-11-05T10:19:01.914Z,44.62
2016-11-05T10:20:01.935Z,44.62
2016-11-05T10:21:01.639Z,45.86
2016-11-05T10:22:01.661Z,45.38
2016-11-05T10:23:01.704Z,46.15
2016-11-05T10:24:02.019Z,46.25
2016-11-05T10:25:02.038Z,46.05
2016-11-05T10:26:01.747Z,45
2016-11-05T10:27:02.083Z,44.43
2016-11-05T10:28:02.102Z,44.33
2016-11-05T10:29:02.126Z,45.09
2016-11-05T10:30:02.147Z,44.9
2016-11-05T10:31:02.170Z,44.43
2016-11-05T10:32:01.872Z,44.9
2016-11-05T10:33:02.209Z,44.71
2016-11-05T10:34:01.917Z,44.33
2016-11-05T10:35:01.946Z,44.13
2016-11-05T10:36:02.277Z,44.62
2016-11-05T10:37:02.298Z,44.43
2016-11-05T10:38:02.318Z,43.56
2016-11-05T10:39:02.021Z,43.56
2016-11-05T10:40:02.360Z,43.08
2016-11-05T10:41:02.064Z,42.7
2016-11-05T10:42:02.092Z,43.18
2016-11-05T10:43:02.107Z,42.87
2016-11-05T10:44:02.129Z,43.56
2016-11-05T10:45:02.482Z,43.47
2016-11-05T10:46:02.174Z,42.9
2016-11-05T10:47:02.209Z,42.9
2016-11-05T10:48:02.215Z,43.47
2016-11-05T10:49:02.238Z,43.85
2016-11-05T10:50:02.573Z,43.37
2016-11-05T10:51:02.280Z,43.18
2016-11-05T10:52:02.617Z,43.08
2016-11-05T10:53:02.642Z,43.47
2016-11-05T10:54:02.659Z,43.85
2016-11-05T10:55:02.362Z,43.87
2016-11-05T10:56:02.386Z,43.97
2016-11-05T10:57:02.733Z,43.77
2016-11-05T10:58:02.743Z,43.3
2016-11-05T10:59:02.764Z,42.91
2016-11-05T11:00:02.470Z,42.34
2016-11-05T11:01:02.813Z,42.44
2016-11-05T11:02:02.829Z,41.86
2016-11-05T11:03:02.544Z,41.57
2016-11-05T11:04:02.554Z,41.67
2016-11-05T11:05:02.580Z,40.81
2016-11-05T11:06:02.598Z,41.57
2016-11-05T11:07:02.621Z,41.09
2016-11-05T11:08:02.643Z,41.19
2016-11-05T11:09:02.662Z,41.19
2016-11-05T11:10:02.685Z,40.52
2016-11-05T11:11:03.020Z,40.9
2016-11-05T11:12:02.726Z,41.28
2016-11-05T11:13:02.751Z,41.19
2016-11-05T11:14:03.119Z,41.48
2016-11-05T11:15:02.796Z,41.77
2016-11-05T11:16:02.824Z,40.81
2016-11-05T11:17:03.156Z,40.81
2016-11-05T11:18:03.169Z,41.19
2016-11-05T11:19:02.880Z,40.9
2016-11-05T11:20:02.902Z,40.83
2016-11-05T11:21:03.237Z,40.54
2016-11-05T11:22:02.944Z,41
2016-11-05T11:23:02.965Z,40.16
2016-11-05T11:24:03.304Z,40.06
2016-11-05T11:25:03.326Z,39.87
2016-11-05T11:26:03.346Z,40.54
2016-11-05T11:27:03.370Z,40.92
2016-11-05T11:28:03.076Z,40.33
2016-11-05T11:29:03.097Z,40.73
2016-11-05T11:30:03.119Z,41.21
2016-11-05T11:31:03.141Z,40.73
2016-11-05T11:32:03.477Z,41.28
2016-11-05T11:33:03.184Z,41.78
2016-11-05T11:34:03.206Z,41.97
2016-11-05T11:35:03.226Z,41.4
2016-11-05T11:36:03.566Z,41.97
2016-11-05T11:37:03.270Z,41.21
2016-11-05T11:38:03.607Z,41.97
2016-11-05T11:39:03.637Z,41.78
2016-11-05T11:40:03.337Z,41.4
2016-11-05T11:41:03.709Z,41.6
2016-11-05T11:42:03.697Z,41.31
2016-11-05T11:43:03.729Z,41.69
2016-11-05T11:44:03.739Z,42.07
2016-11-05T11:45:03.478Z,42.55
2016-11-05T11:46:03.466Z,43.03
2016-11-05T11:47:03.495Z,42.74
2016-11-05T11:48:03.511Z,42.55
2016-11-05T11:49:03.534Z,42.94
2016-11-05T11:50:03.558Z,42.94
2016-11-05T11:51:03.891Z,43.13
2016-11-05T11:52:03.598Z,42.94
2016-11-05T11:53:03.620Z,42.74
2016-11-05T11:54:03.643Z,43.23
2016-11-05T11:55:03.663Z,43.6
2016-11-05T11:56:04.003Z,44.18
2016-11-05T11:57:03.712Z,44.47
2016-11-05T11:58:04.070Z,45.04
2016-11-05T11:59:03.781Z,45.23
2016-11-05T12:00:04.088Z,46.29
2016-11-05T12:01:04.112Z,46.39
2016-11-05T12:02:03.821Z,45.81
2016-11-05T12:03:03.845Z,45.43
2016-11-05T12:04:04.175Z,46.39
2016-11-05T12:05:03.885Z,47.44
2016-11-05T12:06:04.228Z,47.63
2016-11-05T12:07:04.241Z,48.11
2016-11-05T12:08:03.947Z,48.4
2016-11-05T12:09:03.970Z,48.11
2016-11-05T12:10:03.994Z,47.82
2016-11-05T12:11:04.015Z,47.34
2016-11-05T12:12:04.352Z,46.77
2016-11-05T12:13:04.060Z,47.15
2016-11-05T12:14:04.395Z,47.32
2016-11-05T12:15:04.421Z,46.75
2016-11-05T12:16:04.450Z,47.42
2016-11-05T12:17:04.463Z,47.22
2016-11-05T12:18:04.484Z,47.32
2016-11-05T12:19:04.500Z,47.51
2016-11-05T12:20:04.211Z,47.32
2016-11-05T12:21:04.235Z,48.18
2016-11-05T12:22:04.255Z,48.47
2016-11-05T12:23:04.274Z,48.18
2016-11-05T12:24:04.298Z,48.28
2016-11-05T12:25:04.317Z,48.38
2016-11-05T12:26:04.655Z,48.57
2016-11-05T12:27:04.679Z,48.57
2016-11-05T12:28:04.383Z,48.57
2016-11-05T12:29:04.406Z,48.66
2016-11-05T12:30:04.772Z,50.2
2016-11-05T12:31:04.449Z,50
2016-11-05T12:32:04.475Z,49.52
2016-11-05T12:33:04.810Z,50.2
2016-11-05T12:34:04.516Z,50
2016-11-05T12:35:04.538Z,50
2016-11-05T12:36:04.557Z,51.06
2016-11-05T12:37:04.582Z,50.67
2016-11-05T12:38:04.922Z,51.25
2016-11-05T12:39:04.937Z,51.44
2016-11-05T12:40:04.647Z,51.44
2016-11-05T12:41:04.983Z,52.5
2016-11-05T12:42:04.704Z,51.34
2016-11-05T12:43:04.708Z,50.87
2016-11-05T12:44:04.730Z,51.15
2016-11-05T12:45:05.068Z,51.63
2016-11-05T12:46:04.775Z,50.29
2016-11-05T12:47:04.797Z,50.48
2016-11-05T12:48:04.816Z,51.25
2016-11-05T12:49:05.156Z,51.63
2016-11-05T12:50:04.859Z,51.25
2016-11-05T12:51:04.879Z,52.5
2016-11-05T12:52:04.905Z,52.59
2016-11-05T12:53:05.238Z,51.63
2016-11-05T12:54:05.259Z,51.82
2016-11-05T12:55:04.967Z,51.25
2016-11-05T12:56:05.310Z,51.15